LFRN/RNS METAR and TAF weather

Enter ICAO airport designator
Station Type Date Time Source
LFRN METAR 2018/12/10 01:30 UTC NOAA

LFRN 100130Z AUTO 28009KT CAVOK 07/06 Q1029 NOSIG


Station Type Date Time Source
LFRN Decoded METAR 2018/12/10 01:30 UTC NOAA

Rennes, France (LFRN) 48-04N 001-44W 37M
Dec 09, 2018 - 08:30 PM EST / 2018.12.10 0130 UTC
Wind: from the W (280 degrees) at 10 MPH (9 KT):0
Visibility: greater than 7 mile(s):0
Temperature: 44 F (7 C)
Dew Point: 42 F (6 C)
Relative Humidity: 93%
Pressure (altimeter): 30.39 in. Hg (1029 hPa)
ob: LFRN 100130Z AUTO 28009KT CAVOK 07/06 Q1029 NOSIG
cycle: 1

Station Type Date Time Source
LFRN TAF 2018/12/09 18:21 UTC NOAA

TAF LFRN 091700Z 0918/1018 29010KT 9999 BKN030
TEMPO 0918/0922 29015G25KT PROB30
TEMPO 0918/0921 4000 SHRA BKN020TCU
BECMG 1015/1017 VRB03KT


Example: see airport list